createdAt,value
2018-09-20T00:01:07.994Z,101505.70
2018-09-20T00:03:36.419Z,101499.98
2018-09-20T00:06:04.785Z,101509.65
2018-09-20T00:08:33.201Z,101501.34
2018-09-20T00:11:01.569Z,101509.69
2018-09-20T00:13:29.965Z,101509.23
2018-09-20T00:15:58.339Z,101516.27
2018-09-20T00:18:26.743Z,101515.84
2018-09-20T00:20:55.120Z,101514.98
2018-09-20T00:23:23.518Z,101510.16
2018-09-20T00:25:51.918Z,101513.66
2018-09-20T00:28:20.326Z,101511.48
2018-09-20T00:30:48.799Z,101517.61
2018-09-20T00:33:17.190Z,101525.50
2018-09-20T00:35:45.565Z,101519.38
2018-09-20T00:38:13.962Z,101526.84
2018-09-20T00:40:42.339Z,101521.59
2018-09-20T00:43:10.743Z,101521.14
2018-09-20T00:45:39.186Z,101519.82
2018-09-20T00:48:07.616Z,101521.14
2018-09-20T00:50:35.995Z,101513.28
2018-09-20T00:53:04.398Z,101516.33
2018-09-20T00:55:32.791Z,101522.48
2018-09-20T00:58:01.190Z,101523.80
2018-09-20T01:00:29.632Z,101528.61
2018-09-20T01:02:58.008Z,101527.75
2018-09-20T01:05:26.394Z,101529.06
2018-09-20T01:07:54.795Z,101529.93
2018-09-20T01:10:23.170Z,101528.64
2018-09-20T01:12:51.575Z,101524.70
2018-09-20T01:15:19.951Z,101526.43
2018-09-20T01:17:48.371Z,101502.44
2018-09-20T01:20:16.751Z,101524.70
2018-09-20T01:22:45.130Z,101531.69
2018-09-20T01:25:13.550Z,101531.69
2018-09-20T01:27:42.361Z,101534.32
2018-09-20T01:30:10.758Z,101535.22
2018-09-20T01:32:39.212Z,101540.89
2018-09-20T01:35:07.622Z,101536.53
2018-09-20T01:37:36.034Z,101538.75
2018-09-20T01:40:04.459Z,101540.92
2018-09-20T01:42:32.837Z,101542.69
2018-09-20T01:45:01.242Z,101542.23
2018-09-20T01:47:29.621Z,101537.43
2018-09-20T01:49:58.023Z,101533.94
2018-09-20T01:52:26.422Z,101537.02
2018-09-20T01:54:54.821Z,101540.54
2018-09-20T01:57:23.194Z,101540.95
2018-09-20T01:59:51.730Z,101543.59
2018-09-20T02:02:20.110Z,101538.36
2018-09-20T02:04:48.512Z,101543.62
2018-09-20T02:07:16.900Z,101544.06
2018-09-20T02:09:45.297Z,101539.25
2018-09-20T02:12:13.674Z,101532.67
2018-09-20T02:14:42.080Z,101531.81
2018-09-20T02:17:10.477Z,101532.27
2018-09-20T02:19:38.889Z,101537.94
2018-09-20T02:22:07.350Z,101538.41
2018-09-20T02:24:35.777Z,101537.96
2018-09-20T02:27:04.153Z,101541.94
2018-09-20T02:29:32.558Z,101538.41
2018-09-20T02:32:00.998Z,101541.48
2018-09-20T02:34:29.393Z,101539.30
2018-09-20T02:36:57.763Z,101543.25
2018-09-20T02:39:26.166Z,101546.33
2018-09-20T02:41:54.538Z,101543.28
2018-09-20T02:44:22.939Z,101538.91
2018-09-20T02:46:51.340Z,101537.60
2018-09-20T02:49:19.743Z,101539.36
2018-09-20T02:51:48.119Z,101535.86
2018-09-20T02:54:16.523Z,101539.39
2018-09-20T02:56:44.902Z,101534.13
2018-09-20T02:59:13.299Z,101537.20
2018-09-20T03:01:41.678Z,101538.07
2018-09-20T03:04:10.087Z,101541.15
2018-09-20T03:06:38.462Z,101536.78
2018-09-20T03:09:08.710Z,101538.52
2018-09-20T03:11:37.094Z,101534.57
2018-09-20T03:14:05.486Z,101535.47
2018-09-20T03:16:34.011Z,101532.38
2018-09-20T03:19:02.611Z,101538.08
2018-09-20T03:21:30.998Z,101540.74
2018-09-20T03:23:59.441Z,101538.98
2018-09-20T03:26:27.898Z,101535.06
2018-09-20T03:28:56.270Z,101539.45
2018-09-20T03:31:24.670Z,101547.34
2018-09-20T03:33:53.047Z,101550.41
2018-09-20T03:36:21.450Z,101553.48
2018-09-20T03:38:49.825Z,101544.28
2018-09-20T03:41:18.230Z,101544.72
2018-09-20T03:43:46.793Z,101548.67
2018-09-20T03:46:15.190Z,101548.22
2018-09-20T03:48:43.566Z,101552.61
2018-09-20T03:51:11.966Z,101550.43
2018-09-20T03:53:40.352Z,101553.50
2018-09-20T03:56:08.755Z,101545.61
2018-09-20T03:58:37.125Z,101554.39
2018-09-20T04:01:05.598Z,101548.69
2018-09-20T04:03:33.970Z,101550.89
2018-09-20T04:06:02.361Z,101554.41
2018-09-20T04:08:30.771Z,101547.84
2018-09-20T04:10:59.166Z,101559.66
2018-09-20T04:13:27.542Z,101555.75
2018-09-20T04:15:55.939Z,101554.84
2018-09-20T04:18:24.314Z,101561.42
2018-09-20T04:20:52.703Z,101557.50
2018-09-20T04:23:21.078Z,101562.31
2018-09-20T04:25:49.495Z,101562.76
2018-09-20T04:28:17.870Z,101564.06
2018-09-20T04:30:46.366Z,101565.37
2018-09-20T04:33:14.783Z,101565.83
2018-09-20T04:35:43.186Z,101568.89
2018-09-20T04:38:11.558Z,101569.34
2018-09-20T04:40:39.958Z,101568.03
2018-09-20T04:43:08.330Z,101568.03
2018-09-20T04:45:36.795Z,101570.23
2018-09-20T04:48:05.167Z,101568.02
2018-09-20T04:50:33.578Z,101573.72
2018-09-20T04:53:01.961Z,101572.41
2018-09-20T04:55:30.362Z,101579.42
2018-09-20T04:57:58.738Z,101576.34
2018-09-20T05:00:27.129Z,101578.12
2018-09-20T05:02:55.506Z,101577.67
2018-09-20T05:05:23.927Z,101585.09
2018-09-20T05:07:52.413Z,101582.92
2018-09-20T05:10:20.897Z,101589.91
2018-09-20T05:12:49.273Z,101583.77
2018-09-20T05:15:17.675Z,101585.53
2018-09-20T05:17:46.049Z,101591.66
2018-09-20T05:20:14.525Z,101593.84
2018-09-20T05:22:42.902Z,101591.22
2018-09-20T05:25:11.297Z,101587.25
2018-09-20T05:27:39.694Z,101593.37
2018-09-20T05:30:08.151Z,101593.38
2018-09-20T05:32:36.544Z,101594.25
2018-09-20T05:35:04.934Z,101592.95
2018-09-20T05:37:33.333Z,101592.95
2018-09-20T05:40:01.713Z,101599.48
2018-09-20T05:42:30.113Z,101598.17
2018-09-20T05:44:58.499Z,101597.30
2018-09-20T05:47:26.894Z,101599.48
2018-09-20T05:49:55.271Z,101610.42
2018-09-20T05:52:23.666Z,101610.45
2018-09-20T05:54:52.086Z,101608.69
2018-09-20T05:57:20.490Z,101610.45
2018-09-20T05:59:48.862Z,101614.80
2018-09-20T06:02:17.250Z,101610.89
2018-09-20T06:04:45.621Z,101611.75
2018-09-20T06:07:14.023Z,101618.32
2018-09-20T06:09:42.398Z,101613.52
2018-09-20T06:12:10.826Z,101617.91
2018-09-20T06:14:39.269Z,101619.20
2018-09-20T06:17:07.667Z,101631.03
2018-09-20T06:19:36.050Z,101627.50
2018-09-20T06:22:04.454Z,101623.55
2018-09-20T06:24:32.846Z,101621.77
2018-09-20T06:27:01.266Z,101618.67
2018-09-20T06:29:29.638Z,101622.19
2018-09-20T06:31:58.038Z,101618.65
2018-09-20T06:34:26.414Z,101625.17
2018-09-20T06:36:54.826Z,101621.22
2018-09-20T06:39:23.202Z,101622.91
2018-09-20T06:41:51.599Z,101627.70
2018-09-20T06:44:19.990Z,101623.69
2018-09-20T06:46:48.430Z,101625.41
2018-09-20T06:49:16.802Z,101625.80
2018-09-20T06:51:45.203Z,101624.00
2018-09-20T06:54:13.586Z,101623.94
2018-09-20T06:56:42.054Z,101621.69
2018-09-20T06:59:10.507Z,101614.18
2018-09-20T07:01:38.943Z,101615.46
2018-09-20T07:04:07.619Z,101617.57
2018-09-20T07:06:36.006Z,101610.91
2018-09-20T07:09:07.242Z,101611.29
2018-09-20T07:11:35.637Z,101615.16
2018-09-20T07:14:04.206Z,101619.02
2018-09-20T07:16:32.645Z,101618.94
2018-09-20T07:19:01.283Z,101614.45
2018-09-20T07:21:29.715Z,101611.27
2018-09-20T07:23:58.105Z,101613.76
2018-09-20T07:26:26.502Z,101614.55
2018-09-20T07:28:54.890Z,101609.17
2018-09-20T07:31:23.263Z,101611.66
2018-09-20T07:33:51.658Z,101613.33
2018-09-20T07:36:20.038Z,101612.77
2018-09-20T07:38:48.506Z,101612.75
2018-09-20T07:41:16.877Z,101613.55
2018-09-20T07:43:45.271Z,101611.73
2018-09-20T07:46:13.642Z,101608.16
2018-09-20T07:48:42.034Z,101610.24
2018-09-20T07:51:10.406Z,101615.00
2018-09-20T07:53:38.836Z,101614.06
2018-09-20T07:56:07.206Z,101608.67
2018-09-20T07:58:35.600Z,101608.59
2018-09-20T08:01:03.970Z,101611.09
2018-09-20T08:03:32.363Z,101614.05
2018-09-20T08:06:00.735Z,101612.14
2018-09-20T08:08:29.261Z,101614.19
2018-09-20T08:10:57.630Z,101612.70
2018-09-20T08:13:26.027Z,101609.86
2018-09-20T08:15:54.390Z,101609.25
2018-09-20T08:18:22.782Z,101603.35
2018-09-20T08:20:51.151Z,101611.11
2018-09-20T08:23:19.537Z,101608.34
2018-09-20T08:25:47.929Z,101606.01
2018-09-20T08:28:16.338Z,101605.84
2018-09-20T08:30:44.713Z,101606.56
2018-09-20T08:33:13.110Z,101600.30
2018-09-20T08:35:41.481Z,101606.37
2018-09-20T08:38:09.886Z,101614.13
2018-09-20T08:40:38.266Z,101610.88
2018-09-20T08:43:06.742Z,101613.31
2018-09-20T08:45:35.230Z,101610.49
2018-09-20T08:48:36.302Z,101606.61
2018-09-20T08:51:04.684Z,101605.53
2018-09-20T08:53:33.130Z,101602.24
2018-09-20T08:56:01.493Z,101605.08
2018-09-20T08:58:32.694Z,101593.44
2018-09-20T09:01:02.890Z,101593.27
2018-09-20T09:03:31.401Z,101597.94
2018-09-20T09:05:59.958Z,101583.19
2018-09-20T09:08:28.374Z,101590.94
2018-09-20T09:10:56.756Z,101589.93
2018-09-20T09:13:25.150Z,101588.92
2018-09-20T09:15:53.534Z,101594.13
2018-09-20T09:18:21.942Z,101593.64
2018-09-20T09:20:50.330Z,101586.92
2018-09-20T09:23:18.741Z,101586.44
2018-09-20T09:25:47.129Z,101588.12
2018-09-20T09:28:15.512Z,101581.38
2018-09-20T09:30:43.915Z,101579.01
2018-09-20T09:33:12.299Z,101579.28
2018-09-20T09:35:40.698Z,101574.62
2018-09-20T09:38:09.066Z,101573.54
2018-09-20T09:40:37.471Z,101564.83
2018-09-20T09:43:05.851Z,101560.16
2018-09-20T09:45:34.248Z,101563.58
2018-09-20T09:48:02.677Z,101559.36
2018-09-20T09:50:31.090Z,101559.16
2018-09-20T09:52:59.473Z,101556.73
2018-09-20T09:55:27.880Z,101551.28
2018-09-20T09:57:56.255Z,101557.31
2018-09-20T10:00:30.105Z,101552.27
2018-09-20T10:02:59.029Z,101550.30
2018-09-20T10:05:27.539Z,101543.87
2018-09-20T10:07:56.399Z,101541.47
2018-09-20T10:10:24.810Z,101544.33
2018-09-20T10:12:53.179Z,101537.11
2018-09-20T10:15:21.584Z,101539.19
2018-09-20T10:17:50.079Z,101528.06
2018-09-20T10:20:18.470Z,101532.25
2018-09-20T10:22:46.838Z,101529.91
2018-09-20T10:25:16.019Z,101529.29
2018-09-20T10:27:44.410Z,101526.76
2018-09-20T10:30:12.811Z,101526.05
2018-09-20T10:32:41.194Z,101525.23
2018-09-20T10:35:09.590Z,101526.32
2018-09-20T10:37:38.056Z,101514.52
2018-09-20T10:40:06.621Z,101509.88
2018-09-20T10:42:34.989Z,101511.44
2018-09-20T10:45:03.403Z,101511.23
2018-09-20T10:47:31.781Z,101513.99
2018-09-20T10:50:00.178Z,101511.90
2018-09-20T10:52:28.774Z,101508.55
2018-09-20T10:54:57.178Z,101502.84
2018-09-20T10:57:25.559Z,101498.43
2018-09-20T10:59:53.954Z,101498.38
2018-09-20T11:02:22.330Z,101488.13
2018-09-20T11:04:50.718Z,101494.14
2018-09-20T11:07:19.103Z,101497.83
2018-09-20T11:09:47.501Z,101501.59
2018-09-20T11:12:15.905Z,101495.88
2018-09-20T11:14:44.278Z,101502.64
2018-09-20T11:17:12.682Z,101503.71
2018-09-20T11:19:41.150Z,101503.69
2018-09-20T11:22:09.556Z,101498.52
2018-09-20T11:24:37.958Z,101495.97
2018-09-20T11:27:06.391Z,101496.34
2018-09-20T11:29:34.774Z,101489.88
2018-09-20T11:32:03.170Z,101491.08
2018-09-20T11:34:31.550Z,101484.61
2018-09-20T11:36:59.980Z,101486.81
2018-09-20T11:39:28.342Z,101484.70
2018-09-20T11:41:56.738Z,101477.81
2018-09-20T11:44:25.119Z,101471.42
2018-09-20T11:46:53.513Z,101470.00
2018-09-20T11:49:21.889Z,101464.09
2018-09-20T11:51:50.298Z,101469.61
2018-09-20T11:54:18.758Z,101471.22
2018-09-20T11:56:47.159Z,101466.61
2018-09-20T11:59:15.538Z,101462.80
2018-09-20T12:01:44.041Z,101463.08
2018-09-20T12:04:12.403Z,101450.41
2018-09-20T12:06:40.794Z,101446.27
2018-09-20T12:09:09.170Z,101453.58
2018-09-20T12:11:37.591Z,101452.39
2018-09-20T12:14:05.974Z,101450.34
2018-09-20T12:16:34.391Z,101447.88
2018-09-20T12:19:02.845Z,101449.69
2018-09-20T12:21:31.250Z,101447.02
2018-09-20T12:23:59.630Z,101437.75
2018-09-20T12:26:28.053Z,101438.88
2018-09-20T12:28:56.430Z,101442.92
2018-09-20T12:31:24.874Z,101432.58
2018-09-20T12:33:53.241Z,101423.67
2018-09-20T12:36:21.958Z,101423.31
2018-09-20T12:38:50.403Z,101409.77
2018-09-20T12:41:18.770Z,101418.36
2018-09-20T12:43:47.223Z,101417.53
2018-09-20T12:46:15.627Z,101407.27
2018-09-20T12:48:44.074Z,101399.01
2018-09-20T12:51:12.486Z,101410.21
2018-09-20T12:53:40.863Z,101405.63
2018-09-20T12:56:09.259Z,101397.66
2018-09-20T12:58:42.474Z,101406.13
2018-09-20T13:01:11.070Z,101404.89
2018-09-20T13:03:39.447Z,101396.95
2018-09-20T13:06:07.903Z,101402.91
2018-09-20T13:08:36.271Z,101400.83
2018-09-20T13:11:04.655Z,101401.98
2018-09-20T13:13:33.084Z,101394.52
2018-09-20T13:16:01.493Z,101398.66
2018-09-20T13:18:29.902Z,101391.99
2018-09-20T13:20:58.277Z,101395.99
2018-09-20T13:23:26.670Z,101395.94
2018-09-20T13:25:55.093Z,101396.27
2018-09-20T13:28:23.490Z,101382.05
2018-09-20T13:30:51.898Z,101385.52
2018-09-20T13:33:20.298Z,101381.93
2018-09-20T13:35:48.685Z,101385.13
2018-09-20T13:38:30.539Z,101389.19
2018-09-20T13:40:58.926Z,101385.80
2018-09-20T13:43:28.560Z,101376.69
2018-09-20T13:45:56.942Z,101379.67
2018-09-20T13:48:25.343Z,101369.64
2018-09-20T13:50:53.736Z,101366.08
2018-09-20T13:53:22.134Z,101368.22
2018-09-20T13:55:50.607Z,101370.73
2018-09-20T13:58:19.003Z,101369.29
2018-09-20T14:00:47.743Z,101374.14
2018-09-20T14:03:16.162Z,101365.67
2018-09-20T14:05:44.552Z,101365.94
2018-09-20T14:08:12.932Z,101363.98
2018-09-20T14:10:41.423Z,101363.30
2018-09-20T14:13:09.801Z,101359.16
2018-09-20T14:15:38.260Z,101351.16
2018-09-20T14:18:06.605Z,101356.49
2018-09-20T14:20:35.007Z,101350.52
2018-09-20T14:23:03.390Z,101351.73
2018-09-20T14:25:31.803Z,101348.03
2018-09-20T14:28:00.183Z,101342.43
2018-09-20T14:30:28.574Z,101342.19
2018-09-20T14:32:56.938Z,101340.59
2018-09-20T14:35:25.342Z,101336.69
2018-09-20T14:37:53.714Z,101342.92
2018-09-20T14:40:22.122Z,101340.41
2018-09-20T14:42:50.495Z,101341.44
2018-09-20T14:45:18.895Z,101337.05
2018-09-20T14:47:47.273Z,101333.65
2018-09-20T14:50:15.673Z,101329.33
2018-09-20T14:52:44.124Z,101331.66
2018-09-20T14:55:12.478Z,101326.48
2018-09-20T14:57:40.859Z,101329.28
2018-09-20T15:00:09.261Z,101329.02
2018-09-20T15:02:37.639Z,101332.30
2018-09-20T15:05:06.447Z,101327.02
2018-09-20T15:07:34.829Z,101328.44
2018-09-20T15:10:03.243Z,101325.83
2018-09-20T15:12:31.637Z,101326.78
2018-09-20T15:15:00.016Z,101317.52
2018-09-20T15:17:28.442Z,101317.04
2018-09-20T15:19:56.809Z,101318.84
2018-09-20T15:22:25.198Z,101317.52
2018-09-20T15:24:53.609Z,101310.00
2018-09-20T15:27:22.015Z,101312.72
2018-09-20T15:29:50.386Z,101307.48
2018-09-20T15:32:18.785Z,101312.86
2018-09-20T15:34:47.162Z,101308.53
2018-09-20T15:37:15.591Z,101309.48
2018-09-20T15:39:44.023Z,101312.20
2018-09-20T15:42:12.409Z,101306.59
2018-09-20T15:44:40.798Z,101307.21
2018-09-20T15:47:09.219Z,101300.75
2018-09-20T15:49:37.598Z,101298.70
2018-09-20T15:52:06.537Z,101297.90
2018-09-20T15:54:34.941Z,101297.95
2018-09-20T15:57:03.338Z,101298.48
2018-09-20T15:59:31.719Z,101297.25
2018-09-20T16:02:00.110Z,101289.41
2018-09-20T16:04:28.494Z,101283.28
2018-09-20T16:06:56.894Z,101282.56
2018-09-20T16:09:25.274Z,101276.91
2018-09-20T16:11:53.667Z,101277.91
2018-09-20T16:14:22.056Z,101273.58
2018-09-20T16:16:50.497Z,101270.12
2018-09-20T16:19:18.867Z,101265.70
2018-09-20T16:21:47.275Z,101259.61
2018-09-20T16:24:15.674Z,101262.38
2018-09-20T16:26:44.124Z,101266.45
2018-09-20T16:29:25.738Z,101260.28
2018-09-20T16:32:42.356Z,101263.84
2018-09-20T16:35:52.502Z,101262.12
2018-09-20T16:38:30.028Z,101260.85
2018-09-20T16:41:00.843Z,101256.05
2018-09-20T16:43:29.555Z,101258.33
2018-09-20T16:45:57.942Z,101249.55
2018-09-20T16:48:26.330Z,101249.16
2018-09-20T16:50:54.710Z,101251.06
2018-09-20T16:53:23.451Z,101260.03
2018-09-20T16:55:51.681Z,101253.52
2018-09-20T16:58:20.097Z,101255.45
2018-09-20T17:00:48.668Z,101254.31
2018-09-20T17:03:17.082Z,101250.51
2018-09-20T17:05:46.390Z,101253.40
2018-09-20T17:08:14.782Z,101256.67
2018-09-20T17:10:43.185Z,101252.56
2018-09-20T17:13:11.596Z,101247.53
2018-09-20T17:15:40.018Z,101246.13
2018-09-20T17:18:08.397Z,101246.47
2018-09-20T17:20:36.788Z,101245.97
2018-09-20T17:23:05.174Z,101243.27
2018-09-20T17:25:33.704Z,101240.52
2018-09-20T17:28:01.995Z,101239.92
2018-09-20T17:30:30.386Z,101239.78
2018-09-20T17:32:59.047Z,101235.75
2018-09-20T17:35:27.726Z,101239.16
2018-09-20T17:37:57.317Z,101242.09
2018-09-20T17:40:26.974Z,101241.44
2018-09-20T17:42:59.122Z,101245.30
2018-09-20T17:45:27.826Z,101244.69
2018-09-20T17:47:56.210Z,101246.25
2018-09-20T17:50:24.626Z,101251.42
2018-09-20T17:52:54.780Z,101249.50
2018-09-20T17:55:24.007Z,101240.53
2018-09-20T17:57:53.106Z,101246.98
2018-09-20T18:00:23.774Z,101250.79
2018-09-20T18:02:52.825Z,101244.85
2018-09-20T18:05:21.926Z,101245.53
2018-09-20T18:07:50.478Z,101242.24
2018-09-20T18:10:19.003Z,101248.22
2018-09-20T18:12:47.383Z,101241.45
2018-09-20T18:15:15.782Z,101246.45
2018-09-20T18:17:44.386Z,101245.80
2018-09-20T18:20:12.739Z,101243.79
2018-09-20T18:22:41.112Z,101243.56
2018-09-20T18:25:10.403Z,101242.91
2018-09-20T18:27:38.779Z,101241.34
2018-09-20T18:30:07.338Z,101240.19
2018-09-20T18:32:35.737Z,101247.46
2018-09-20T18:35:04.116Z,101246.77
2018-09-20T18:37:34.242Z,101244.77
2018-09-20T18:40:02.614Z,101244.52
2018-09-20T18:42:31.092Z,101242.09
2018-09-20T18:44:59.455Z,101239.23
2018-09-20T18:47:27.860Z,101239.91
2018-09-20T18:49:56.238Z,101231.33
2018-09-20T18:52:24.629Z,101231.08
2018-09-20T18:54:53.059Z,101233.47
2018-09-20T18:57:21.477Z,101232.84
2018-09-20T18:59:49.854Z,101233.50
2018-09-20T19:02:18.250Z,101229.73
2018-09-20T19:04:46.625Z,101233.42
2018-09-20T19:07:15.037Z,101228.80
2018-09-20T19:09:43.431Z,101227.20
2018-09-20T19:12:11.834Z,101222.95
2018-09-20T19:14:40.224Z,101224.86
2018-09-20T19:17:08.634Z,101224.16
2018-09-20T19:19:37.024Z,101223.45
2018-09-20T19:22:05.414Z,101222.31
2018-09-20T19:24:33.818Z,101218.53
2018-09-20T19:27:02.231Z,101220.94
2018-09-20T19:29:30.602Z,101216.69
2018-09-20T19:31:59.029Z,101212.42
2018-09-20T19:34:27.398Z,101218.27
2018-09-20T19:36:55.826Z,101216.23
2018-09-20T19:39:24.327Z,101215.03
2018-09-20T19:41:52.729Z,101208.17
2018-09-20T19:44:21.111Z,101210.01
2018-09-20T19:46:49.522Z,101211.92
2018-09-20T19:49:17.902Z,101208.97
2018-09-20T19:51:46.321Z,101212.63
2018-09-20T19:54:14.701Z,101200.91
2018-09-20T19:56:43.094Z,101205.41
2018-09-20T19:59:11.470Z,101201.57
2018-09-20T20:01:39.966Z,101200.81
2018-09-20T20:04:08.370Z,101202.66
2018-09-20T20:06:36.778Z,101206.30
2018-09-20T20:09:09.022Z,101201.11
2018-09-20T20:11:37.450Z,101201.64
2018-09-20T20:14:05.845Z,101201.33
2018-09-20T20:16:34.223Z,101193.55
2018-09-20T20:19:02.617Z,101193.23
2018-09-20T20:21:31.001Z,101186.78
2018-09-20T20:23:59.393Z,101184.27
2018-09-20T20:26:27.791Z,101174.73
2018-09-20T20:28:56.182Z,101174.00
2018-09-20T20:31:24.570Z,101179.78
2018-09-20T20:33:52.998Z,101177.72
2018-09-20T20:36:21.377Z,101182.65
2018-09-20T20:38:49.782Z,101177.91
2018-09-20T20:41:18.163Z,101174.92
2018-09-20T20:43:46.556Z,101176.75
2018-09-20T20:46:14.926Z,101175.91
2018-09-20T20:48:43.393Z,101173.33
2018-09-20T20:51:11.771Z,101175.55
2018-09-20T20:53:40.165Z,101172.52
2018-09-20T20:56:08.542Z,101178.23
2018-09-20T20:58:37.021Z,101179.15
2018-09-20T21:01:05.326Z,101174.80
2018-09-20T21:03:33.713Z,101171.33
2018-09-20T21:06:02.083Z,101171.83
2018-09-20T21:08:30.473Z,101169.66
2018-09-20T21:10:58.850Z,101159.64
2018-09-20T21:13:27.253Z,101154.84
2018-09-20T21:15:55.650Z,101162.34
2018-09-20T21:18:24.048Z,101160.62
2018-09-20T21:20:52.430Z,101167.65
2018-09-20T21:23:20.826Z,101154.96
2018-09-20T21:25:49.545Z,101154.56
2018-09-20T21:28:17.945Z,101150.66
2018-09-20T21:30:46.334Z,101150.70
2018-09-20T21:33:14.738Z,101146.41
2018-09-20T21:35:43.109Z,101152.55
2018-09-20T21:38:11.516Z,101147.34
2018-09-20T21:40:39.878Z,101141.68
2018-09-20T21:43:08.274Z,101142.63
2018-09-20T21:45:36.653Z,101137.42
2018-09-20T21:48:05.091Z,101128.69
2018-09-20T21:50:33.516Z,101130.50
2018-09-20T21:53:02.134Z,101127.92
2018-09-20T21:55:30.510Z,101128.41
2018-09-20T21:57:58.910Z,101125.39
2018-09-20T22:00:27.441Z,101127.60
2018-09-20T22:03:01.828Z,101115.41
2018-09-20T22:05:31.289Z,101112.80
2018-09-20T22:07:59.661Z,101112.83
2018-09-20T22:10:28.050Z,101108.48
2018-09-20T22:12:56.841Z,101105.90
2018-09-20T22:15:26.306Z,101103.28
2018-09-20T22:17:55.430Z,101104.63
2018-09-20T22:20:25.071Z,101102.50
2018-09-20T22:22:53.546Z,101099.05
2018-09-20T22:25:22.131Z,101092.08
2018-09-20T22:27:50.510Z,101089.05
2018-09-20T22:30:18.910Z,101088.63
2018-09-20T22:32:47.454Z,101081.66
2018-09-20T22:35:15.858Z,101081.66
2018-09-20T22:37:44.230Z,101077.31
2018-09-20T22:40:12.630Z,101074.70
2018-09-20T22:42:41.002Z,101071.66
2018-09-20T22:45:09.409Z,101071.69
2018-09-20T22:47:37.790Z,101070.83
2018-09-20T22:50:06.193Z,101062.55
2018-09-20T22:52:34.599Z,101061.69
2018-09-20T22:55:02.998Z,101066.94
2018-09-20T22:57:31.390Z,101064.76
2018-09-20T22:59:59.794Z,101064.31
2018-09-20T23:02:28.178Z,101063.00
2018-09-20T23:04:56.578Z,101061.69
2018-09-20T23:07:24.953Z,101054.72
2018-09-20T23:09:53.345Z,101052.99
2018-09-20T23:12:21.809Z,101053.00
2018-09-20T23:14:50.206Z,101048.20
2018-09-20T23:17:18.586Z,101049.92
2018-09-20T23:19:46.986Z,101043.84
2018-09-20T23:22:15.367Z,101036.84
2018-09-20T23:24:43.786Z,101035.98
2018-09-20T23:27:12.185Z,101035.12
2018-09-20T23:29:40.578Z,101028.15
2018-09-20T23:32:08.954Z,101030.77
2018-09-20T23:34:37.359Z,101027.28
2018-09-20T23:37:05.731Z,101023.80
2018-09-20T23:39:34.122Z,101015.48
2018-09-20T23:42:02.530Z,101014.20
2018-09-20T23:44:30.926Z,101012.90
2018-09-20T23:46:59.426Z,101008.55
2018-09-20T23:49:27.817Z,101005.06
2018-09-20T23:51:56.198Z,101001.58
2018-09-20T23:54:24.602Z,100997.68
2018-09-20T23:56:53.251Z,100995.95
2018-09-20T23:59:21.642Z,100980.67
